aviador You're here:

MMSP Decoded Metar

SAN LUIS POTOSI in MEXICO
Report Time2018-02-22 14:19:00
UTC Time2018-02-22 14:44:29
Flight Rules ifr IFR
WindCalm
Visibility3219 m
Phenomena:Mist
Clouds:N/A
CeilingNone
Temp11°C (ISA +8)
Dew Point11°C (100% RH)
QNH1027 hPa
Density Alt6,959 ft
Elevation6,243 ft
Report Wrong Elevation
Raw Report
METAR MMSP 221419Z 00000KT 2SM BR SKC 11/11 A3034=

Extra information for MMSP:More info

Metar Taf Metar & Taf Last 4 Metars F.Rules Stats Wind Profile Meteogram Temp Stats Airport Information Weather charts Add Link Nearby VenuesMetar ALERT Operation Metar Decoded Social comments